createdAt,value
2023-06-04T00:01:28.533Z,18.00
2023-06-04T00:03:58.831Z,18.00
2023-06-04T00:06:28.972Z,17.90
2023-06-04T00:08:59.121Z,17.77
2023-06-04T00:11:29.346Z,17.64
2023-06-04T00:13:59.121Z,17.53
2023-06-04T00:16:29.204Z,17.60
2023-06-04T00:18:59.338Z,17.61
2023-06-04T00:21:29.425Z,17.67
2023-06-04T00:24:00.661Z,17.69
2023-06-04T00:26:31.124Z,17.70
2023-06-04T00:29:02.406Z,17.71
2023-06-04T00:31:32.791Z,17.70
2023-06-04T00:34:03.101Z,17.69
2023-06-04T00:36:34.323Z,17.69
2023-06-04T00:39:04.584Z,17.55
2023-06-04T00:41:34.783Z,17.36
2023-06-04T00:44:08.642Z,17.19
2023-06-04T00:46:38.880Z,17.22
2023-06-04T00:49:08.927Z,17.26
2023-06-04T00:51:38.813Z,17.22
2023-06-04T00:54:11.297Z,17.08
2023-06-04T00:56:42.137Z,16.90
2023-06-04T00:59:12.734Z,16.89
2023-06-04T01:01:59.362Z,16.83
2023-06-04T01:04:55.013Z,16.75
2023-06-04T01:07:28.123Z,16.69
2023-06-04T01:09:58.690Z,16.64
2023-06-04T01:12:32.081Z,16.58
2023-06-04T01:15:02.296Z,16.49
2023-06-04T01:17:39.543Z,16.41
2023-06-04T01:20:23.114Z,16.38
2023-06-04T01:23:22.277Z,16.35
2023-06-04T01:25:54.131Z,16.40
2023-06-04T01:28:24.300Z,16.49
2023-06-04T01:30:55.880Z,16.52
2023-06-04T01:33:26.344Z,16.42
2023-06-04T01:35:57.006Z,16.35
2023-06-04T01:38:27.098Z,16.30
2023-06-04T01:40:58.627Z,16.24
2023-06-04T01:43:28.654Z,16.20
2023-06-04T01:45:59.005Z,16.21
2023-06-04T01:48:29.221Z,16.20
2023-06-04T01:50:59.496Z,16.13
2023-06-04T01:53:30.447Z,16.08
2023-06-04T01:56:00.903Z,16.08
2023-06-04T01:58:31.328Z,16.11
2023-06-04T02:01:02.445Z,16.22
2023-06-04T02:03:38.936Z,16.20
2023-06-04T02:06:10.056Z,16.28
2023-06-04T02:08:40.814Z,16.30
2023-06-04T02:11:11.149Z,16.22
2023-06-04T02:13:41.327Z,16.18
2023-06-04T02:16:11.791Z,16.18
2023-06-04T02:18:41.990Z,16.13
2023-06-04T02:21:12.148Z,16.11
2023-06-04T02:23:43.557Z,16.16
2023-06-04T02:26:13.757Z,16.10
2023-06-04T02:28:43.716Z,16.08
2023-06-04T02:31:14.184Z,16.06
2023-06-04T02:33:43.896Z,16.03
2023-06-04T02:36:13.953Z,15.94
2023-06-04T02:38:44.037Z,15.94
2023-06-04T02:41:14.191Z,15.89
2023-06-04T02:43:44.297Z,15.91
2023-06-04T02:46:14.734Z,15.87
2023-06-04T02:48:44.626Z,15.83
2023-06-04T02:51:14.560Z,15.85
2023-06-04T02:53:44.498Z,15.80
2023-06-04T02:56:14.548Z,15.85
2023-06-04T02:58:55.705Z,15.86
2023-06-04T03:01:28.372Z,15.83
2023-06-04T03:04:01.640Z,15.85
2023-06-04T03:06:34.753Z,15.76
2023-06-04T03:09:04.784Z,15.80
2023-06-04T03:11:34.722Z,15.83
2023-06-04T03:14:04.852Z,15.80
2023-06-04T03:16:35.368Z,15.79
2023-06-04T03:19:05.431Z,15.79
2023-06-04T03:21:35.601Z,15.77
2023-06-04T03:24:05.822Z,15.73
2023-06-04T03:26:36.209Z,15.73
2023-06-04T03:29:06.341Z,15.73
2023-06-04T03:31:37.008Z,15.67
2023-06-04T03:34:07.797Z,15.73
2023-06-04T03:36:40.352Z,15.66
2023-06-04T03:39:10.695Z,15.66
2023-06-04T03:41:41.178Z,15.69
2023-06-04T03:44:11.272Z,15.69
2023-06-04T03:46:41.526Z,15.62
2023-06-04T03:49:12.474Z,15.66
2023-06-04T03:51:44.273Z,15.59
2023-06-04T03:54:14.769Z,15.56
2023-06-04T03:56:46.124Z,15.60
2023-06-04T03:59:16.676Z,15.59
2023-06-04T04:01:47.328Z,15.63
2023-06-04T04:04:18.689Z,15.60
2023-06-04T04:06:48.549Z,15.49
2023-06-04T04:09:18.414Z,15.43
2023-06-04T04:11:48.602Z,15.52
2023-06-04T04:14:18.750Z,15.46
2023-06-04T04:16:49.344Z,15.35
2023-06-04T04:19:19.930Z,15.32
2023-06-04T04:21:50.625Z,15.29
2023-06-04T04:24:30.860Z,15.35
2023-06-04T04:27:06.698Z,15.45
2023-06-04T04:29:37.279Z,15.48
2023-06-04T04:32:12.932Z,15.49
2023-06-04T04:34:57.105Z,15.46
2023-06-04T04:37:33.111Z,15.35
2023-06-04T04:40:03.889Z,15.24
2023-06-04T04:42:36.369Z,15.31
2023-06-04T04:45:08.879Z,15.29
2023-06-04T04:47:40.773Z,15.28
2023-06-04T04:50:11.208Z,15.29
2023-06-04T04:52:41.761Z,15.18
2023-06-04T04:55:14.119Z,15.17
2023-06-04T04:57:47.545Z,15.21
2023-06-04T05:00:19.529Z,15.17
2023-06-04T05:02:52.822Z,15.09
2023-06-04T05:05:23.839Z,15.08
2023-06-04T05:07:55.252Z,15.02
2023-06-04T05:10:32.114Z,15.12
2023-06-04T05:13:03.843Z,15.22
2023-06-04T05:15:42.196Z,15.25
2023-06-04T05:18:14.001Z,15.25
2023-06-04T05:20:45.204Z,15.27
2023-06-04T05:23:16.339Z,15.24
2023-06-04T05:25:52.971Z,15.18
2023-06-04T05:28:26.973Z,15.22
2023-06-04T05:31:01.880Z,15.27
2023-06-04T05:33:36.338Z,15.21
2023-06-04T05:36:11.110Z,15.14
2023-06-04T05:38:47.244Z,15.01
2023-06-04T05:41:19.875Z,14.92
2023-06-04T05:43:50.105Z,14.99
2023-06-04T05:46:21.004Z,15.08
2023-06-04T05:48:51.549Z,15.15
2023-06-04T05:51:22.850Z,15.18
2023-06-04T05:53:53.506Z,15.19
2023-06-04T05:56:23.894Z,15.21
2023-06-04T05:58:55.182Z,15.27
2023-06-04T06:01:27.811Z,15.25
2023-06-04T06:03:58.555Z,15.25
2023-06-04T06:06:30.786Z,15.27
2023-06-04T06:09:01.251Z,15.22
2023-06-04T06:11:31.809Z,15.18
2023-06-04T06:14:02.088Z,15.09
2023-06-04T06:16:32.323Z,14.99
2023-06-04T06:19:03.636Z,14.99
2023-06-04T06:21:33.767Z,15.08
2023-06-04T06:24:04.139Z,15.17
2023-06-04T06:26:35.084Z,15.18
2023-06-04T06:29:06.470Z,15.19
2023-06-04T06:31:37.096Z,15.22
2023-06-04T06:34:07.911Z,15.19
2023-06-04T06:36:37.981Z,15.11
2023-06-04T06:39:08.417Z,15.01
2023-06-04T06:41:40.607Z,14.88
2023-06-04T06:44:30.103Z,14.85
2023-06-04T06:47:00.243Z,14.94
2023-06-04T06:49:30.358Z,14.85
2023-06-04T06:52:00.430Z,14.70
2023-06-04T06:54:30.627Z,14.67
2023-06-04T06:57:00.722Z,14.76
2023-06-04T06:59:30.610Z,14.74
2023-06-04T07:02:00.757Z,14.61
2023-06-04T07:04:30.660Z,14.57
2023-06-04T07:07:00.815Z,14.54
2023-06-04T07:09:30.787Z,14.51
2023-06-04T07:12:00.863Z,14.51
2023-06-04T07:14:31.008Z,14.56
2023-06-04T07:17:01.195Z,14.57
2023-06-04T07:19:31.436Z,14.47
2023-06-04T07:22:01.884Z,14.36
2023-06-04T07:24:32.239Z,14.40
2023-06-04T07:27:02.388Z,14.43
2023-06-04T07:29:32.626Z,14.51
2023-06-04T07:32:02.715Z,14.54
2023-06-04T07:34:32.938Z,14.44
2023-06-04T07:37:03.237Z,14.29
2023-06-04T07:39:33.434Z,14.29
2023-06-04T07:42:03.560Z,14.27
2023-06-04T07:44:33.747Z,14.30
2023-06-04T07:47:04.101Z,14.34
2023-06-04T07:49:34.344Z,14.33
2023-06-04T07:52:04.426Z,14.27
2023-06-04T07:54:35.594Z,14.19
2023-06-04T07:57:05.850Z,14.13
2023-06-04T07:59:36.086Z,14.17
2023-06-04T08:02:06.436Z,14.30
2023-06-04T08:04:37.003Z,14.40
2023-06-04T08:07:07.396Z,14.38
2023-06-04T08:09:37.276Z,14.25
2023-06-04T08:12:09.866Z,14.26
2023-06-04T08:14:42.144Z,14.17
2023-06-04T08:17:12.330Z,14.32
2023-06-04T08:19:42.506Z,14.37
2023-06-04T08:22:13.752Z,14.41
2023-06-04T08:24:44.677Z,14.38
2023-06-04T08:27:14.761Z,14.33
2023-06-04T08:29:44.682Z,14.27
2023-06-04T08:32:14.540Z,14.17
2023-06-04T08:34:44.764Z,14.13
2023-06-04T08:37:14.873Z,14.15
2023-06-04T08:39:45.050Z,14.27
2023-06-04T08:42:23.512Z,14.34
2023-06-04T08:44:55.035Z,14.29
2023-06-04T08:47:30.731Z,14.15
2023-06-04T08:50:03.017Z,14.10
2023-06-04T08:52:33.522Z,14.15
2023-06-04T08:55:04.952Z,14.20
2023-06-04T08:57:35.141Z,14.10
2023-06-04T09:00:07.512Z,13.96
2023-06-04T09:02:40.437Z,14.01
2023-06-04T09:05:14.705Z,14.05
2023-06-04T09:07:45.211Z,14.04
2023-06-04T09:10:20.560Z,14.01
2023-06-04T09:12:51.996Z,13.98
2023-06-04T09:15:22.185Z,13.89
2023-06-04T09:17:52.310Z,13.85
2023-06-04T09:20:26.894Z,13.90
2023-06-04T09:22:57.563Z,13.96
2023-06-04T09:25:29.639Z,13.92
2023-06-04T09:28:09.205Z,13.89
2023-06-04T09:30:39.414Z,13.86
2023-06-04T09:33:14.437Z,13.88
2023-06-04T09:35:55.595Z,13.96
2023-06-04T09:38:26.298Z,14.02
2023-06-04T09:40:56.529Z,14.01
2023-06-04T09:43:26.886Z,14.05
2023-06-04T09:45:57.099Z,14.10
2023-06-04T09:48:28.049Z,13.98
2023-06-04T09:51:08.844Z,14.01
2023-06-04T09:53:39.724Z,14.09
2023-06-04T09:56:13.370Z,13.99
2023-06-04T09:58:46.964Z,13.85
2023-06-04T10:01:17.544Z,13.79
2023-06-04T10:03:50.866Z,13.81
2023-06-04T10:06:25.814Z,13.82
2023-06-04T10:08:58.265Z,13.83
2023-06-04T10:11:40.237Z,13.79
2023-06-04T10:14:23.518Z,13.78
2023-06-04T10:16:55.107Z,13.69
2023-06-04T10:19:26.175Z,13.72
2023-06-04T10:21:56.595Z,13.71
2023-06-04T10:24:28.942Z,13.74
2023-06-04T10:27:01.706Z,13.78
2023-06-04T10:29:33.113Z,13.85
2023-06-04T10:32:03.528Z,13.92
2023-06-04T10:34:34.588Z,13.88
2023-06-04T10:37:05.891Z,13.85
2023-06-04T10:39:36.087Z,13.79
2023-06-04T10:42:07.975Z,13.90
2023-06-04T10:44:49.238Z,13.98
2023-06-04T10:47:24.333Z,13.98
2023-06-04T10:49:55.745Z,14.01
2023-06-04T10:52:26.054Z,14.16
2023-06-04T10:55:07.069Z,14.27
2023-06-04T10:57:38.867Z,14.33
2023-06-04T11:00:12.361Z,14.30
2023-06-04T11:02:58.133Z,14.34
2023-06-04T11:05:39.162Z,14.37
2023-06-04T11:08:10.598Z,14.48
2023-06-04T11:10:42.922Z,14.61
2023-06-04T11:13:13.489Z,14.68
2023-06-04T11:15:47.229Z,14.76
2023-06-04T11:18:26.238Z,14.77
2023-06-04T11:21:04.104Z,14.83
2023-06-04T11:23:36.290Z,14.84
2023-06-04T11:26:06.774Z,14.87
2023-06-04T11:28:37.269Z,14.89
2023-06-04T11:31:10.771Z,14.92
2023-06-04T11:33:47.742Z,14.97
2023-06-04T11:36:28.247Z,14.97
2023-06-04T11:39:04.536Z,15.01
2023-06-04T11:41:35.971Z,15.04
2023-06-04T11:44:10.949Z,15.07
2023-06-04T11:46:47.574Z,15.12
2023-06-04T11:49:21.844Z,15.22
2023-06-04T11:51:53.757Z,15.34
2023-06-04T11:54:24.987Z,15.40
2023-06-04T11:56:55.697Z,15.46
2023-06-04T11:59:26.810Z,15.53
2023-06-04T12:01:57.093Z,15.59
2023-06-04T12:04:32.397Z,15.65
2023-06-04T12:07:04.604Z,15.73
2023-06-04T12:09:40.545Z,15.77
2023-06-04T12:12:11.314Z,15.87
2023-06-04T12:14:41.764Z,15.97
2023-06-04T12:17:12.445Z,16.08
2023-06-04T12:19:53.576Z,16.21
2023-06-04T12:22:23.663Z,16.28
2023-06-04T12:25:02.935Z,16.38
2023-06-04T12:27:33.838Z,16.49
2023-06-04T12:30:07.464Z,16.61
2023-06-04T12:32:41.170Z,16.72
2023-06-04T12:35:11.507Z,16.88
2023-06-04T12:37:42.087Z,16.96
2023-06-04T12:40:12.467Z,17.08
2023-06-04T12:42:42.839Z,17.16
2023-06-04T12:45:15.500Z,17.26
2023-06-04T12:47:45.991Z,17.36
2023-06-04T12:50:16.107Z,17.53
2023-06-04T12:52:46.202Z,17.61
2023-06-04T12:55:16.484Z,17.71
2023-06-04T12:57:48.341Z,17.78
2023-06-04T13:00:18.942Z,17.85
2023-06-04T13:02:49.108Z,17.90
2023-06-04T13:05:19.315Z,17.91
2023-06-04T13:07:49.491Z,17.97
2023-06-04T13:10:19.678Z,18.05
2023-06-04T13:12:49.846Z,18.18
2023-06-04T13:15:19.729Z,18.28
2023-06-04T13:17:49.599Z,18.41
2023-06-04T13:20:19.541Z,18.55
2023-06-04T13:22:49.565Z,18.76
2023-06-04T13:25:19.950Z,18.83
2023-06-04T13:27:51.467Z,18.89
2023-06-04T13:30:21.596Z,18.97
2023-06-04T13:32:51.853Z,19.07
2023-06-04T13:35:22.350Z,19.14
2023-06-04T13:37:51.951Z,19.21
2023-06-04T13:40:22.140Z,19.30
2023-06-04T13:42:52.632Z,19.45
2023-06-04T13:45:25.078Z,19.57
2023-06-04T13:47:56.595Z,19.57
2023-06-04T13:50:26.239Z,19.66
2023-06-04T13:52:56.054Z,19.76
2023-06-04T13:55:26.374Z,19.86
2023-06-04T13:57:56.490Z,19.90
2023-06-04T14:00:26.821Z,20.02
2023-06-04T14:02:57.317Z,20.20
2023-06-04T14:05:30.189Z,20.41
2023-06-04T14:08:00.380Z,20.56
2023-06-04T14:10:30.478Z,20.74
2023-06-04T14:13:00.573Z,20.81
2023-06-04T14:15:30.585Z,20.83
2023-06-04T14:18:00.698Z,20.97
2023-06-04T14:20:30.615Z,21.09
2023-06-04T14:23:00.596Z,21.09
2023-06-04T14:25:30.492Z,21.19
2023-06-04T14:28:00.378Z,21.28
2023-06-04T14:30:30.272Z,21.36
2023-06-04T14:33:00.398Z,21.56
2023-06-04T14:35:30.632Z,21.86
2023-06-04T14:38:00.758Z,22.07
2023-06-04T14:40:30.596Z,22.21
2023-06-04T14:43:00.795Z,22.31
2023-06-04T14:45:31.326Z,22.58
2023-06-04T14:48:13.909Z,22.76
2023-06-04T14:50:45.934Z,22.98
2023-06-04T14:53:16.194Z,23.15
2023-06-04T14:55:46.284Z,23.34
2023-06-04T14:58:17.263Z,23.64
2023-06-04T15:00:48.046Z,23.67
2023-06-04T15:03:18.286Z,23.85
2023-06-04T15:05:48.530Z,23.93
2023-06-04T15:08:18.622Z,23.80
2023-06-04T15:10:49.359Z,23.78
2023-06-04T15:13:19.794Z,23.87
2023-06-04T15:15:50.110Z,23.97
2023-06-04T15:18:20.328Z,23.93
2023-06-04T15:20:50.975Z,24.05
2023-06-04T15:23:40.975Z,24.15
2023-06-04T15:26:11.257Z,24.12
2023-06-04T15:28:40.836Z,24.14
2023-06-04T15:31:10.601Z,24.21
2023-06-04T15:33:40.640Z,24.26
2023-06-04T15:36:10.510Z,24.42
2023-06-04T15:38:40.406Z,24.49
2023-06-04T15:41:10.123Z,24.52
2023-06-04T15:43:40.219Z,24.80
2023-06-04T15:46:10.345Z,25.00
2023-06-04T15:48:40.917Z,25.02
2023-06-04T15:51:11.065Z,25.06
2023-06-04T15:53:40.749Z,25.03
2023-06-04T15:56:10.869Z,25.07
2023-06-04T15:58:41.031Z,24.93
2023-06-04T16:01:11.418Z,25.02
2023-06-04T16:03:42.124Z,25.00
2023-06-04T16:06:13.349Z,24.93
2023-06-04T16:08:43.564Z,25.09
2023-06-04T16:11:13.181Z,25.19
2023-06-04T16:13:43.570Z,25.27
2023-06-04T16:16:13.760Z,25.14
2023-06-04T16:18:44.073Z,25.37
2023-06-04T16:21:13.721Z,25.38
2023-06-04T16:23:43.604Z,25.48
2023-06-04T16:26:13.759Z,25.37
2023-06-04T16:28:43.750Z,25.31
2023-06-04T16:31:13.393Z,25.26
2023-06-04T16:33:43.970Z,25.31
2023-06-04T16:36:13.999Z,25.40
2023-06-04T16:38:44.061Z,25.51
2023-06-04T16:41:13.694Z,25.42
2023-06-04T16:43:43.477Z,25.51
2023-06-04T16:46:17.940Z,25.58
2023-06-04T16:48:48.498Z,25.81
2023-06-04T16:51:18.663Z,25.93
2023-06-04T16:53:48.352Z,26.19
2023-06-04T16:56:18.135Z,27.61
2023-06-04T16:58:48.276Z,28.04
2023-06-04T17:01:18.645Z,28.88
2023-06-04T17:03:49.907Z,28.84
2023-06-04T17:06:22.354Z,29.45
2023-06-04T17:08:52.552Z,29.73
2023-06-04T17:11:22.686Z,30.52
2023-06-04T17:13:54.834Z,31.17
2023-06-04T17:16:27.609Z,31.58
2023-06-04T17:18:57.994Z,31.33
2023-06-04T17:21:29.428Z,31.30
2023-06-04T17:24:01.520Z,31.91
2023-06-04T17:26:32.957Z,31.94
2023-06-04T17:29:03.357Z,32.08
2023-06-04T17:31:34.150Z,31.36
2023-06-04T17:34:05.293Z,31.46
2023-06-04T17:36:37.409Z,31.55
2023-06-04T17:39:08.086Z,32.21
2023-06-04T17:41:38.251Z,31.12
2023-06-04T17:44:08.498Z,29.43
2023-06-04T17:46:39.156Z,28.24
2023-06-04T17:49:12.464Z,28.14
2023-06-04T17:51:42.598Z,29.91
2023-06-04T17:54:13.987Z,28.54
2023-06-04T17:56:44.196Z,26.97
2023-06-04T17:59:14.441Z,26.80
2023-06-04T18:01:44.619Z,27.12
2023-06-04T18:04:15.158Z,28.09
2023-06-04T18:06:45.404Z,27.81
2023-06-04T18:09:15.641Z,26.30
2023-06-04T18:11:45.981Z,26.19
2023-06-04T18:14:16.426Z,26.30
2023-06-04T18:16:46.638Z,25.69
2023-06-04T18:19:22.037Z,25.82
2023-06-04T18:21:53.714Z,26.01
2023-06-04T18:24:24.163Z,25.86
2023-06-04T18:26:54.395Z,27.08
2023-06-04T18:29:24.594Z,26.23
2023-06-04T18:31:54.802Z,25.54
2023-06-04T18:34:25.124Z,25.21
2023-06-04T18:36:55.379Z,24.91
2023-06-04T18:39:29.099Z,24.84
2023-06-04T18:41:59.242Z,24.77
2023-06-04T18:44:29.581Z,24.70
2023-06-04T18:47:00.677Z,24.63
2023-06-04T18:49:51.125Z,24.58
2023-06-04T18:52:21.970Z,24.52
2023-06-04T18:54:52.155Z,24.47
2023-06-04T18:57:23.044Z,24.35
2023-06-04T18:59:53.220Z,24.43
2023-06-04T19:02:22.871Z,24.56
2023-06-04T19:04:53.111Z,24.53
2023-06-04T19:07:23.566Z,24.43
2023-06-04T19:09:53.691Z,24.39
2023-06-04T19:12:23.804Z,24.33
2023-06-04T19:14:53.923Z,24.29
2023-06-04T19:17:24.715Z,24.25
2023-06-04T19:19:55.216Z,24.09
2023-06-04T19:22:25.660Z,23.97
2023-06-04T19:24:55.870Z,23.88
2023-06-04T19:27:25.618Z,23.81
2023-06-04T19:29:56.711Z,23.78
2023-06-04T19:32:30.043Z,23.73
2023-06-04T19:35:00.143Z,23.80
2023-06-04T19:37:31.565Z,23.82
2023-06-04T19:40:04.003Z,23.80
2023-06-04T19:42:34.317Z,23.68
2023-06-04T19:45:04.671Z,23.56
2023-06-04T19:47:34.829Z,23.40
2023-06-04T19:50:24.369Z,23.20
2023-06-04T19:52:54.453Z,23.12
2023-06-04T19:55:25.413Z,22.98
2023-06-04T19:57:57.720Z,22.88
2023-06-04T20:00:27.916Z,22.85
2023-06-04T20:02:57.739Z,22.81
2023-06-04T20:05:27.990Z,22.76
2023-06-04T20:07:58.208Z,22.72
2023-06-04T20:10:28.654Z,22.68
2023-06-04T20:12:58.673Z,22.67
2023-06-04T20:15:28.697Z,22.62
2023-06-04T20:18:18.604Z,22.54
2023-06-04T20:20:54.015Z,22.48
2023-06-04T20:23:24.191Z,22.41
2023-06-04T20:25:53.950Z,22.33
2023-06-04T20:28:23.954Z,22.28
2023-06-04T20:30:54.165Z,22.21
2023-06-04T20:33:23.826Z,22.14
2023-06-04T20:35:53.592Z,22.08
2023-06-04T20:38:23.461Z,22.03
2023-06-04T20:40:53.486Z,22.00
2023-06-04T20:43:23.091Z,21.89
2023-06-04T20:45:54.604Z,21.82
2023-06-04T20:48:24.691Z,21.75
2023-06-04T20:50:55.008Z,21.70
2023-06-04T20:53:25.448Z,21.66
2023-06-04T20:55:55.315Z,21.65
2023-06-04T20:58:25.474Z,21.60
2023-06-04T21:00:55.691Z,21.59
2023-06-04T21:03:27.334Z,21.55
2023-06-04T21:05:57.870Z,21.45
2023-06-04T21:08:28.129Z,21.31
2023-06-04T21:10:58.856Z,21.22
2023-06-04T21:13:29.587Z,21.15
2023-06-04T21:16:00.378Z,20.92
2023-06-04T21:18:30.532Z,20.78
2023-06-04T21:21:00.765Z,20.80
2023-06-04T21:23:30.701Z,20.81
2023-06-04T21:26:02.074Z,20.83
2023-06-04T21:28:32.281Z,20.80
2023-06-04T21:31:02.819Z,20.74
2023-06-04T21:33:33.084Z,20.73
2023-06-04T21:36:22.528Z,20.75
2023-06-04T21:38:52.189Z,20.70
2023-06-04T21:41:22.769Z,20.73
2023-06-04T21:43:53.048Z,20.75
2023-06-04T21:46:23.938Z,20.75
2023-06-04T21:48:54.081Z,20.74
2023-06-04T21:51:24.582Z,20.73
2023-06-04T21:53:54.780Z,20.68
2023-06-04T21:56:24.706Z,20.58
2023-06-04T21:58:55.679Z,20.39
2023-06-04T22:01:26.508Z,20.29
2023-06-04T22:03:56.897Z,20.27
2023-06-04T22:06:27.241Z,20.16
2023-06-04T22:08:57.223Z,20.16
2023-06-04T22:11:27.580Z,20.16
2023-06-04T22:13:57.785Z,20.15
2023-06-04T22:16:29.023Z,20.12
2023-06-04T22:18:59.452Z,20.08
2023-06-04T22:21:30.035Z,20.06
2023-06-04T22:24:00.267Z,19.95
2023-06-04T22:29:06.989Z,19.85
2023-06-04T22:31:37.292Z,19.83
2023-06-04T22:34:07.275Z,19.75
2023-06-04T22:36:37.335Z,19.72
2023-06-04T22:39:07.757Z,19.75
2023-06-04T22:41:38.670Z,19.74
2023-06-04T22:44:08.682Z,19.74
2023-06-04T22:46:38.735Z,19.75
2023-06-04T22:49:09.614Z,19.72
2023-06-04T22:51:40.484Z,19.72
2023-06-04T22:54:10.587Z,19.71
2023-06-04T22:56:40.783Z,19.71
2023-06-04T22:59:10.749Z,19.68
2023-06-04T23:01:41.036Z,19.58
2023-06-04T23:04:10.996Z,19.35
2023-06-04T23:06:41.127Z,19.27
2023-06-04T23:09:14.678Z,19.34
2023-06-04T23:11:46.303Z,19.38
2023-06-04T23:14:16.728Z,19.35
2023-06-04T23:16:47.148Z,19.34
2023-06-04T23:19:17.399Z,19.32
2023-06-04T23:21:48.501Z,19.35
2023-06-04T23:24:37.554Z,19.36
2023-06-04T23:27:08.069Z,19.36
2023-06-04T23:29:38.252Z,19.41
2023-06-04T23:32:08.741Z,19.42
2023-06-04T23:34:38.988Z,19.42
2023-06-04T23:37:09.082Z,19.45
2023-06-04T23:39:39.184Z,19.48
2023-06-04T23:42:09.424Z,19.48
2023-06-04T23:44:39.576Z,19.39
2023-06-04T23:47:09.662Z,19.32
2023-06-04T23:49:39.611Z,19.15
2023-06-04T23:52:09.888Z,19.11
2023-06-04T23:54:40.317Z,19.11
2023-06-04T23:57:10.014Z,19.08
2023-06-04T23:59:40.091Z,19.10
